Date,TemperatureHighF,TemperatureAvgF,TemperatureLowF,DewpointHighF,DewpointAvgF,DewpointLowF,HumidityHigh,HumidityAvg,HumidityLow,PressureMaxIn,PressureMinIn,WindSpeedMaxMPH,WindSpeedAvgMPH,GustSpeedMaxMPH,PrecipitationSumIn
2013-2-1,28,24,18,23,12,6,90,59,45,30.34,29.85,23,8,29,0.00
2013-2-2,26,21,14,22,12,6,93,69,51,30.36,30.05,14,5,17,0.00
2013-2-3,34,26,18,26,22,16,94,86,65,30.05,29.83,13,2,20,0.05
2013-2-4,30,24,18,22,15,11,82,67,55,30.09,29.93,15,4,19,0.00
2013-2-5,33,30,26,29,27,22,95,89,83,29.97,29.89,3,0,4,0.00
2013-2-6,38,30,22,30,25,18,97,82,62,30.38,29.95,14,3,18,0.01
2013-2-7,35,29,21,24,19,15,87,68,45,30.49,30.27,7,2,11,0.00
2013-2-8,35,34,30,34,31,24,97,91,74,30.26,29.72,20,4,32,0.17
2013-2-9,32,26,23,26,19,15,86,74,64,30.23,29.84,28,12,37,0.00
2013-2-12,43,34,26,30,26,23,87,73,57,29.99,29.90,9,1,12,0.00
2013-2-13,28,27,25,25,24,22,90,89,87,29.98,29.93,1,0,2,0.00
2013-2-14,45,35,29,34,30,25,96,82,52,30.03,29.75,13,6,13,0.20
2013-2-15,54,44,30,38,34,28,95,70,49,30.04,29.92,12,4,15,0.05
2013-2-16,35,32,28,32,28,20,96,87,68,30.01,29.81,10,2,12,0.13
2013-2-17,28,25,20,20,12,4,75,57,41,30.15,29.80,24,10,31,0.00
2013-2-18,36,26,18,17,11,6,65,55,36,30.36,30.15,22,6,26,0.00
2013-2-19,41,35,27,40,30,15,96,82,60,30.20,29.72,13,4,21,0.18
2013-2-20,34,28,22,25,17,12,81,63,55,30.12,29.83,25,11,27,0.00
2013-2-21,33,27,22,19,15,12,69,62,53,30.33,30.10,19,8,25,0.00
2013-2-22,29,25,23,21,18,16,78,74,69,30.41,30.31,13,2,13,0.00
2013-2-23,43,38,32,42,37,30,97,95,91,30.26,29.83,8,4,8,0.13
2013-2-24,43,37,30,38,31,22,98,79,58,30.08,29.79,27,13,27,0.00
2013-2-25,44,34,28,30,25,21,85,71,54,30.24,30.08,15,4,15,0.00
2013-2-26,42,35,25,37,31,22,96,85,71,30.26,29.70,20,5,29,0.48
2013-2-27,50,44,38,44,39,33,98,84,65,29.70,29.51,21,6,23,0.14
2013-2-28,44,39,32,36,32,28,89,76,56,29.70,29.60,12,4,17,0.00